Time;durP1;ratioP1;P1;durP2;ratioP2;P2;SDS_P1;SDS_P2;PMS_P1;PMS_P2;Temp;Humidity;BMP_temperature;BMP_pressure;BME280_temperature;BME280_humidity;BME280_pressure;Samples;Min_cycle;Max_cycle;Signal;HPM_P1;HPM_P2
2024/02/01 00:00:53;;;;;;;4.00;3.37;;;15.60;99.90;;;;;;5105543;28;20426;-43
2024/02/01 00:03:18;;;;;;;4.10;2.80;;;15.80;76.90;;;;;;5099007;28;20177;-43
2024/02/01 00:05:44;;;;;;;4.70;2.63;;;16.00;1.00;;;;;;5100092;28;20191;-42
2024/02/01 00:08:09;;;;;;;8.20;3.23;;;16.10;99.90;;;;;;5099887;28;20184;-44
2024/02/01 00:10:35;;;;;;;2.90;2.47;;;16.20;99.90;;;;;;5099417;28;20188;-44
2024/02/01 00:13:01;;;;;;;3.13;2.80;;;16.30;1.00;;;;;;5101155;28;20191;-43
2024/02/01 00:15:26;;;;;;;5.53;3.60;;;16.20;1.00;;;;;;5099718;28;20204;-42
2024/02/01 00:17:52;;;;;;;5.30;4.40;;;16.00;99.90;;;;;;5099245;28;20210;-43
2024/02/01 00:20:19;;;;;;;4.90;4.10;;;15.60;99.90;;;;;;5098981;28;20267;-42
2024/02/01 00:22:44;;;;;;;5.70;3.70;;;15.10;1.00;;;;;;5098644;28;20181;-42
2024/02/01 00:25:10;;;;;;;4.40;4.00;;;14.70;1.00;;;;;;5098906;28;20495;-43
2024/02/01 00:27:35;;;;;;;6.20;4.77;;;14.30;1.00;;;;;;5099689;28;20617;-41
2024/02/01 00:30:02;;;;;;;5.17;4.53;;;13.90;1.00;;;;;;5099966;28;20469;-43
2024/02/01 00:32:27;;;;;;;5.40;4.90;;;13.60;1.00;;;;;;5100314;28;20580;-43
2024/02/01 00:34:53;;;;;;;5.50;5.00;;;13.40;1.00;;;;;;5065044;28;20566;-41
2024/02/01 00:37:19;;;;;;;4.90;4.10;;;13.20;1.00;;;;;;5100520;28;20181;-41
2024/02/01 00:39:44;;;;;;;5.37;4.30;;;13.00;1.00;;;;;;5101036;28;20181;-41
2024/02/01 00:42:10;;;;;;;7.93;4.60;;;12.80;1.00;;;;;;5100581;28;20512;-42
2024/02/01 00:44:36;;;;;;;4.87;4.23;;;12.70;1.00;;;;;;5100317;28;20554;-43
2024/02/01 00:47:01;;;;;;;6.70;4.17;;;12.50;1.00;;;;;;5099798;28;20215;-41
2024/02/01 00:49:27;;;;;;;5.43;4.07;;;12.40;1.00;;;;;;5100015;28;20272;-42
2024/02/01 00:51:52;;;;;;;7.87;4.37;;;12.30;1.00;;;;;;5099543;28;20497;-42
2024/02/01 00:54:18;;;;;;;4.70;3.90;;;12.20;1.00;;;;;;5099727;28;20210;-42
2024/02/01 00:56:43;;;;;;;4.60;3.83;;;12.10;1.00;;;;;;5099619;28;20179;-43
2024/02/01 00:59:09;;;;;;;5.90;4.70;;;12.00;27.50;;;;;;5099670;28;20490;-41
2024/02/01 01:01:34;;;;;;;6.40;4.80;;;11.90;99.90;;;;;;5100071;28;20199;-43
2024/02/01 01:04:00;;;;;;;8.50;5.80;;;11.90;99.90;;;;;;5099963;28;20223;-43
2024/02/01 01:06:27;;;;;;;6.83;6.07;;;11.80;1.00;;;;;;5099721;28;20177;-43
2024/02/01 01:08:53;;;;;;;9.57;6.60;;;11.80;99.90;;;;;;5100316;28;20441;-44
2024/02/01 01:11:19;;;;;;;8.30;6.90;;;11.70;1.00;;;;;;5097924;28;20430;-43
2024/02/01 01:13:44;;;;;;;8.30;6.70;;;11.60;1.00;;;;;;5080237;28;20188;-43
2024/02/01 01:16:10;;;;;;;7.33;6.63;;;11.50;57.20;;;;;;5080921;28;20609;-41
2024/02/01 01:18:35;;;;;;;8.40;6.60;;;11.50;99.90;;;;;;5098816;28;20180;-42
2024/02/01 01:21:01;;;;;;;8.07;7.10;;;11.50;99.90;;;;;;5099309;28;20164;-41
2024/02/01 01:23:27;;;;;;;7.03;6.33;;;11.40;1.00;;;;;;5099059;28;20180;-45
2024/02/01 01:25:52;;;;;;;8.20;7.37;;;11.30;1.00;;;;;;5098935;28;20442;-42
2024/02/01 01:28:18;;;;;;;8.70;6.80;;;11.30;4.10;;;;;;5058802;28;20240;-42
2024/02/01 01:30:43;;;;;;;8.20;6.60;;;11.20;99.90;;;;;;5056724;28;20603;-42
2024/02/01 01:33:09;;;;;;;7.67;6.30;;;11.20;99.90;;;;;;5057324;28;20223;-42
2024/02/01 01:35:34;;;;;;;9.20;6.63;;;11.10;99.90;;;;;;5057396;28;20202;-43
2024/02/01 01:38:00;;;;;;;8.57;7.03;;;11.10;99.90;;;;;;5057638;28;20181;-41
2024/02/01 01:40:25;;;;;;;8.10;6.90;;;11.10;99.90;;;;;;5055393;28;20182;-43
2024/02/01 01:42:51;;;;;;;7.37;6.50;;;11.10;1.00;;;;;;5057804;28;20182;-43
2024/02/01 01:45:17;;;;;;;10.50;6.97;;;11.10;1.00;;;;;;5058427;28;20566;-43
2024/02/01 01:47:43;;;;;;;7.00;6.40;;;11.00;1.00;;;;;;5057955;28;20510;-41
2024/02/01 01:50:09;;;;;;;7.20;6.40;;;11.00;1.00;;;;;;5057654;28;20282;-42
2024/02/01 01:52:36;;;;;;;7.67;6.10;;;11.00;1.00;;;;;;5057401;28;20502;-40
2024/02/01 01:55:05;;;;;;;6.57;5.83;;;11.00;1.00;;;;;;5056951;28;20210;-43
2024/02/01 01:57:31;;;;;;;10.17;7.07;;;11.00;1.00;;;;;;5057915;28;20510;-41
2024/02/01 01:59:57;;;;;;;6.70;5.67;;;11.00;1.00;;;;;;5057258;28;20435;-41
2024/02/01 02:02:25;;;;;;;7.43;6.73;;;11.00;99.90;;;;;;5056597;28;20424;-43
2024/02/01 02:04:51;;;;;;;8.97;6.67;;;11.00;99.90;;;;;;5059191;28;20814;-42
2024/02/01 02:07:17;;;;;;;9.00;7.93;;;11.00;99.90;;;;;;5057203;28;20439;-41
2024/02/01 02:09:42;;;;;;;6.93;6.33;;;11.00;99.90;;;;;;5055123;28;20535;-41
2024/02/01 02:12:10;;;;;;;7.80;6.43;;;11.00;99.90;;;;;;5054371;28;20208;-43
2024/02/01 02:14:36;;;;;;;6.87;6.17;;;11.00;99.90;;;;;;5056687;28;20459;-40
2024/02/01 02:17:02;;;;;;;7.17;5.57;;;11.00;99.90;;;;;;5055690;28;20424;-43
2024/02/01 02:19:27;;;;;;;8.00;5.90;;;11.00;99.90;;;;;;5056759;28;20446;-42
2024/02/01 02:21:53;;;;;;;6.67;6.07;;;11.00;99.90;;;;;;5056136;28;20425;-42
2024/02/01 02:24:19;;;;;;;7.23;6.30;;;11.00;99.90;;;;;;5057037;28;20172;-42
2024/02/01 02:26:46;;;;;;;7.00;5.70;;;10.90;1.00;;;;;;5067810;28;20216;-41
2024/02/01 02:29:14;;;;;;;8.17;5.67;;;10.90;1.00;;;;;;5080728;28;20546;-41
2024/02/01 02:31:40;;;;;;;7.87;6.03;;;10.90;1.00;;;;;;5098894;28;20461;-44
2024/02/01 02:34:06;;;;;;;7.47;5.40;;;10.90;1.00;;;;;;5098205;28;20426;-41
2024/02/01 02:36:32;;;;;;;7.57;6.10;;;10.90;99.90;;;;;;5079774;28;20507;-41
2024/02/01 02:38:58;;;;;;;7.73;6.93;;;10.90;99.90;;;;;;5098565;28;20478;-41
2024/02/01 02:41:23;;;;;;;7.97;6.83;;;10.90;99.90;;;;;;5098200;28;20184;-41
2024/02/01 02:43:50;;;;;;;9.77;6.63;;;10.90;17.20;;;;;;5097925;28;20466;-41
2024/02/01 02:46:15;;;;;;;7.70;6.90;;;10.90;1.00;;;;;;5097891;28;20184;-42
2024/02/01 02:48:41;;;;;;;7.53;6.63;;;10.90;1.00;;;;;;5098831;28;20706;-42
2024/02/01 02:51:07;;;;;;;9.53;6.60;;;10.90;1.00;;;;;;5098003;28;20520;-43
2024/02/01 02:53:33;;;;;;;8.30;6.40;;;10.90;1.00;;;;;;5097946;28;20183;-44
2024/02/01 02:55:58;;;;;;;6.53;5.93;;;10.80;99.90;;;;;;5097488;28;20557;-41
2024/02/01 02:58:24;;;;;;;11.10;6.83;;;10.80;99.90;;;;;;5097962;28;20184;-43
2024/02/01 03:00:50;;;;;;;9.30;5.33;;;10.80;20.90;;;;;;5097645;28;20173;-41
2024/02/01 03:03:16;;;;;;;7.10;6.40;;;10.80;1.00;;;;;;5080043;28;20667;-42
2024/02/01 03:05:42;;;;;;;6.30;5.70;;;10.80;1.00;;;;;;5097280;28;20197;-41
2024/02/01 03:08:09;;;;;;;12.00;5.77;;;10.80;1.00;;;;;;5079923;28;20516;-41
2024/02/01 03:10:36;;;;;;;7.57;5.77;;;10.80;1.00;;;;;;5097034;28;20530;-41
2024/02/01 03:13:02;;;;;;;6.73;5.73;;;10.80;1.00;;;;;;5095976;28;20963;-41
2024/02/01 03:15:29;;;;;;;9.73;7.57;;;10.70;1.00;;;;;;5096625;28;20466;-41
2024/02/01 03:17:56;;;;;;;7.63;5.80;;;10.70;99.90;;;;;;5096537;28;20411;-42
2024/02/01 03:20:22;;;;;;;8.03;5.30;;;10.80;99.90;;;;;;5095076;28;20422;-42
2024/02/01 03:22:54;;;;;;;9.07;5.53;;;10.70;99.90;;;;;;5094431;28;20681;-43
2024/02/01 03:25:19;;;;;;;6.83;5.57;;;10.70;99.90;;;;;;5095919;28;20542;-44
2024/02/01 03:27:45;;;;;;;6.20;4.83;;;10.70;99.90;;;;;;5096429;28;20498;-41
2024/02/01 03:30:12;;;;;;;7.50;4.90;;;10.70;99.90;;;;;;5096577;28;20204;-42
2024/02/01 03:32:39;;;;;;;5.40;4.23;;;10.70;21.60;;;;;;5094340;28;20437;-41
2024/02/01 03:35:04;;;;;;;4.83;4.33;;;10.70;1.00;;;;;;5094273;28;20496;-43
2024/02/01 03:37:30;;;;;;;5.90;4.40;;;10.70;1.00;;;;;;5097294;28;20415;-42
2024/02/01 03:39:56;;;;;;;4.23;3.80;;;10.70;1.00;;;;;;5125008;28;20237;-40
2024/02/01 03:42:22;;;;;;;4.23;3.83;;;10.70;1.00;;;;;;5135752;27;20506;-41
2024/02/01 03:44:47;;;;;;;5.90;4.90;;;10.70;1.00;;;;;;5135549;27;20573;-42
2024/02/01 03:47:13;;;;;;;4.60;4.20;;;10.60;1.00;;;;;;5136435;28;20432;-44
2024/02/01 03:49:41;;;;;;;6.60;4.00;;;10.60;1.00;;;;;;5136406;28;20202;-41
2024/02/01 03:52:07;;;;;;;4.80;4.07;;;10.60;99.90;;;;;;5138153;28;20298;-42
2024/02/01 03:54:35;;;;;;;4.80;4.00;;;10.60;99.90;;;;;;5136091;28;20476;-42
2024/02/01 03:57:00;;;;;;;5.53;4.17;;;10.60;99.90;;;;;;5134299;27;20239;-43
2024/02/01 03:59:26;;;;;;;5.57;4.10;;;10.60;99.90;;;;;;5134880;27;20425;-42
2024/02/01 04:01:52;;;;;;;6.03;3.87;;;10.50;99.90;;;;;;5134898;27;20536;-44
2024/02/01 04:04:17;;;;;;;4.10;3.70;;;10.50;99.90;;;;;;5133160;28;20262;-41
2024/02/01 04:06:46;;;;;;;3.93;3.53;;;10.50;99.90;;;;;;5132018;28;20171;-44
2024/02/01 04:09:12;;;;;;;4.87;3.97;;;10.50;99.90;;;;;;5132371;27;20198;-43
2024/02/01 04:11:38;;;;;;;4.83;3.70;;;10.50;99.90;;;;;;5132069;28;20421;-41
2024/02/01 04:14:03;;;;;;;5.80;3.90;;;10.50;99.90;;;;;;5134345;28;20449;-45
2024/02/01 04:16:29;;;;;;;3.40;2.97;;;10.50;99.90;;;;;;5134099;28;20488;-42
2024/02/01 04:18:58;;;;;;;4.03;3.63;;;10.50;99.90;;;;;;5135871;27;20180;-44
2024/02/01 04:21:23;;;;;;;3.90;3.47;;;10.50;99.90;;;;;;5137704;27;20171;-42
2024/02/01 04:23:49;;;;;;;4.80;3.83;;;10.50;99.90;;;;;;5137899;28;20428;-42
2024/02/01 04:26:16;;;;;;;3.80;3.40;;;10.50;1.00;;;;;;5137215;28;20505;-41
2024/02/01 04:28:43;;;;;;;4.03;3.57;;;10.50;1.00;;;;;;5136791;27;20593;-44
2024/02/01 04:31:08;;;;;;;3.70;3.37;;;10.50;1.00;;;;;;5136033;27;20424;-46
2024/02/01 04:33:34;;;;;;;4.63;3.20;;;10.50;1.00;;;;;;5138627;27;20428;-43
2024/02/01 04:36:00;;;;;;;4.90;3.67;;;10.50;1.00;;;;;;5141049;27;20475;-42
2024/02/01 04:38:25;;;;;;;4.10;3.30;;;10.50;1.00;;;;;;5139370;27;20223;-42
2024/02/01 04:40:52;;;;;;;2.63;2.43;;;10.60;1.00;;;;;;5139056;27;20257;-43
2024/02/01 04:43:19;;;;;;;3.33;2.83;;;10.60;1.00;;;;;;5138001;27;20167;-42
2024/02/01 04:45:48;;;;;;;6.60;3.97;;;10.60;1.00;;;;;;5136736;27;20420;-42
2024/02/01 04:48:14;;;;;;;3.73;3.40;;;10.60;1.00;;;;;;5137579;27;20432;-44
2024/02/01 04:50:40;;;;;;;4.47;3.43;;;10.50;1.00;;;;;;5139650;27;20814;-42
2024/02/01 04:53:06;;;;;;;4.47;2.97;;;10.60;1.00;;;;;;5139124;27;20409;-41
2024/02/01 04:55:32;;;;;;;3.60;2.60;;;10.60;1.00;;;;;;5138432;27;20761;-41
2024/02/01 04:57:58;;;;;;;3.23;2.90;;;10.60;1.00;;;;;;5140141;27;20421;-45
2024/02/01 05:00:23;;;;;;;4.30;3.43;;;10.60;1.00;;;;;;5139852;27;20186;-42
2024/02/01 05:02:49;;;;;;;4.67;3.70;;;10.60;1.00;;;;;;5139405;27;20833;-43
2024/02/01 05:05:16;;;;;;;3.50;3.20;;;10.60;1.00;;;;;;5139883;27;20258;-41
2024/02/01 05:07:42;;;;;;;4.03;3.30;;;10.60;65.90;;;;;;5139189;27;20178;-44
2024/02/01 05:10:09;;;;;;;4.30;3.33;;;10.60;99.90;;;;;;5140120;27;20425;-44
2024/02/01 05:12:38;;;;;;;4.30;2.83;;;10.60;99.90;;;;;;5139955;27;20247;-42
2024/02/01 05:15:06;;;;;;;4.40;3.70;;;10.60;99.90;;;;;;5138938;27;20468;-43
2024/02/01 05:17:33;;;;;;;4.40;4.00;;;10.60;99.90;;;;;;5137380;27;20431;-44
2024/02/01 05:19:59;;;;;;;4.33;3.70;;;10.60;99.90;;;;;;5139599;27;20400;-42
2024/02/01 05:22:28;;;;;;;4.00;3.60;;;10.60;99.90;;;;;;5138362;27;20437;-44
2024/02/01 05:24:54;;;;;;;3.50;2.57;;;10.60;99.90;;;;;;5139025;27;20239;-41
2024/02/01 05:27:20;;;;;;;4.50;3.20;;;10.60;99.90;;;;;;5138474;27;20838;-42
2024/02/01 05:29:49;;;;;;;4.83;3.23;;;10.60;99.90;;;;;;5138858;27;20463;-43
2024/02/01 05:32:16;;;;;;;4.60;3.27;;;10.60;99.90;;;;;;5138080;27;20405;-42
2024/02/01 05:34:41;;;;;;;3.90;3.50;;;10.60;99.90;;;;;;5138300;27;20956;-45
2024/02/01 05:37:08;;;;;;;5.40;4.30;;;10.60;99.90;;;;;;5137985;27;20512;-43
2024/02/01 05:39:34;;;;;;;5.43;3.67;;;10.60;1.00;;;;;;5138164;27;20215;-44
2024/02/01 05:42:02;;;;;;;4.43;3.50;;;10.60;1.00;;;;;;5136967;27;21069;-45
2024/02/01 05:44:28;;;;;;;5.30;3.40;;;10.60;1.00;;;;;;5137970;27;20496;-42
2024/02/01 05:46:57;;;;;;;3.97;3.20;;;10.60;1.00;;;;;;5134801;27;20408;-44
2024/02/01 05:49:30;;;;;;;4.47;4.07;;;10.60;1.00;;;;;;5137545;27;20421;-41
2024/02/01 05:52:00;;;;;;;3.70;2.83;;;10.60;1.00;;;;;;5137820;27;20417;-42
2024/02/01 05:54:26;;;;;;;4.53;3.23;;;10.60;1.00;;;;;;5137180;27;20444;-42
2024/02/01 05:56:51;;;;;;;4.40;3.80;;;10.60;1.00;;;;;;5117931;27;20424;-41
2024/02/01 05:59:18;;;;;;;7.43;3.80;;;10.60;1.00;;;;;;5137154;27;20262;-43
2024/02/01 06:01:44;;;;;;;4.83;4.30;;;10.60;1.00;;;;;;5139006;27;20487;-43
2024/02/01 06:04:11;;;;;;;6.43;4.20;;;10.60;1.00;;;;;;5134623;27;20570;-43
2024/02/01 06:06:39;;;;;;;8.83;4.57;;;10.60;1.00;;;;;;5133581;27;20485;-44
2024/02/01 06:09:11;;;;;;;4.03;3.33;;;10.60;1.00;;;;;;5136005;27;20447;-43
2024/02/01 06:11:45;;;;;;;4.47;3.40;;;10.60;1.00;;;;;;5136786;27;20420;-44
2024/02/01 06:14:15;;;;;;;4.03;3.30;;;10.60;1.00;;;;;;5133377;27;20495;-44
2024/02/01 06:16:42;;;;;;;6.23;3.97;;;10.60;1.00;;;;;;5136355;27;20531;-41
2024/02/01 06:19:08;;;;;;;4.50;3.60;;;10.60;1.00;;;;;;5134854;27;20834;-42
2024/02/01 06:21:33;;;;;;;4.00;3.43;;;10.60;1.00;;;;;;5133301;27;20429;-41
2024/02/01 06:23:59;;;;;;;3.90;3.50;;;10.50;99.90;;;;;;5136470;27;20174;-40
2024/02/01 06:26:27;;;;;;;5.70;3.40;;;10.50;99.90;;;;;;5135850;27;20441;-41
2024/02/01 06:29:00;;;;;;;7.13;3.67;;;10.50;1.00;;;;;;5135955;27;20419;-42
2024/02/01 06:31:26;;;;;;;3.90;3.30;;;10.50;1.00;;;;;;5134900;27;20516;-43
2024/02/01 06:33:52;;;;;;;4.93;3.73;;;10.50;99.90;;;;;;5130247;27;20440;-44
2024/02/01 06:36:23;;;;;;;4.60;3.67;;;10.50;99.90;;;;;;5114979;28;20469;-42
2024/02/01 06:39:37;;;;;;;5.13;4.13;;;10.50;1.00;;;;;;5114583;28;20470;-43
2024/02/01 06:41:51;;;;;;;4.17;3.67;;;10.50;1.00;;;;;;5113855;28;20425;-42
2024/02/01 06:44:27;;;;;;;4.63;3.63;;;10.40;54.90;;;;;;5113847;28;20795;-42
2024/02/01 06:52:24;;;;;;;5.00;3.47;;;10.40;1.00;;;;;;5116953;28;20425;-43
2024/02/01 06:55:14;;;;;;;5.30;3.33;;;10.40;1.00;;;;;;5115360;28;20477;-42
2024/02/01 07:03:32;;;;;;;4.30;3.30;;;10.30;1.00;;;;;;5135012;27;20427;-45
2024/02/01 07:06:06;;;;;;;3.90;3.10;;;10.30;1.00;;;;;;5137204;27;20513;-41
2024/02/01 07:16:24;;;;;;;4.10;3.50;;;10.30;1.00;;;;;;5137111;27;20733;-42
2024/02/01 07:24:38;;;;;;;3.97;3.60;;;10.20;1.00;;;;;;5135796;27;20415;-42
2024/02/01 08:00:00;;;;;;;6.50;3.37;;;10.00;1.00;;;;;;5136646;28;20439;-41
2024/02/01 08:02:49;;;;;;;3.30;3.00;;;10.00;1.00;;;;;;5135556;27;20517;-43
2024/02/01 08:08:00;;;;;;;4.70;3.10;;;10.00;1.00;;;;;;5139303;27;20555;-42
2024/02/01 08:10:25;;;;;;;3.63;3.33;;;10.00;1.00;;;;;;5140107;27;20428;-42
2024/02/01 08:12:51;;;;;;;3.57;3.27;;;10.00;1.00;;;;;;5136868;27;20198;-42
2024/02/01 08:15:20;;;;;;;4.17;3.23;;;10.00;1.00;;;;;;5137844;27;20357;-42
2024/02/01 08:17:50;;;;;;;4.37;3.40;;;10.00;1.00;;;;;;5139440;27;20269;-42
2024/02/01 08:20:17;;;;;;;5.37;3.00;;;10.10;1.00;;;;;;5138600;27;20470;-44
2024/02/01 08:22:43;;;;;;;6.10;2.97;;;10.00;1.00;;;;;;5137905;27;20405;-44
2024/02/01 08:25:09;;;;;;;4.00;2.83;;;10.00;1.00;;;;;;5137646;27;20853;-42
2024/02/01 08:27:36;;;;;;;4.37;3.93;;;10.10;1.00;;;;;;5140558;27;20443;-43
2024/02/01 08:30:12;;;;;;;3.37;3.07;;;10.10;1.00;;;;;;5141294;27;20432;-43
2024/02/01 08:32:41;;;;;;;4.20;3.10;;;10.10;1.00;;;;;;5140216;27;20443;-42
2024/02/01 08:35:10;;;;;;;4.00;3.17;;;10.10;1.00;;;;;;5137989;27;20451;-40
2024/02/01 08:37:36;;;;;;;4.23;3.43;;;10.10;1.00;;;;;;5138936;27;20420;-43
2024/02/01 08:40:02;;;;;;;3.60;2.60;;;10.10;1.00;;;;;;5139259;27;20464;-43
2024/02/01 08:42:29;;;;;;;5.40;3.63;;;10.20;1.00;;;;;;5137943;27;20535;-42
2024/02/01 08:44:55;;;;;;;5.30;3.27;;;10.20;1.00;;;;;;5138114;27;20428;-41
2024/02/01 08:47:23;;;;;;;4.43;3.70;;;10.20;1.00;;;;;;5136783;27;20511;-41
2024/02/01 08:49:49;;;;;;;3.50;3.00;;;10.20;1.00;;;;;;5139074;27;20416;-42
2024/02/01 08:52:15;;;;;;;3.53;3.23;;;10.20;1.00;;;;;;5137719;27;20712;-41
2024/02/01 08:54:41;;;;;;;3.90;3.17;;;10.20;1.00;;;;;;5137138;27;20435;-42
2024/02/01 08:57:13;;;;;;;3.67;3.27;;;10.20;1.00;;;;;;5138223;27;20174;-42
2024/02/01 08:59:40;;;;;;;3.60;3.20;;;10.20;1.00;;;;;;5138988;27;20921;-41
2024/02/01 09:02:14;;;;;;;2.67;2.47;;;10.20;1.00;;;;;;5138492;27;20439;-42
2024/02/01 09:04:41;;;;;;;4.90;3.27;;;10.20;1.00;;;;;;5138611;27;20416;-42
2024/02/01 09:07:06;;;;;;;3.20;2.80;;;10.30;1.00;;;;;;5137271;27;20939;-45
2024/02/01 09:09:34;;;;;;;3.07;1.70;;;10.30;1.00;;;;;;5138427;27;20431;-42
2024/02/01 09:11:59;;;;;;;1.70;1.30;;;10.40;99.90;;;;;;5137965;27;20385;-41
2024/02/01 09:14:25;;;;;;;5.73;1.60;;;10.90;1.00;;;;;;5135806;27;20428;-42
2024/02/01 09:16:53;;;;;;;2.77;1.60;;;11.50;1.00;;;;;;5137400;27;20191;-43
2024/02/01 09:19:18;;;;;;;4.17;1.80;;;12.00;1.00;;;;;;5134999;27;20190;-43
2024/02/01 09:21:44;;;;;;;3.23;2.20;;;12.50;1.00;;;;;;5136632;27;20425;-43
2024/02/01 09:24:10;;;;;;;2.10;1.67;;;12.90;1.00;;;;;;5135163;27;20517;-42
2024/02/01 09:26:35;;;;;;;2.07;1.87;;;13.30;99.90;;;;;;5135734;27;20182;-42
2024/02/01 09:29:11;;;;;;;2.37;2.00;;;13.50;99.90;;;;;;5136218;27;20181;-42
2024/02/01 09:31:36;;;;;;;2.13;1.70;;;13.80;99.90;;;;;;5136492;27;20181;-43
2024/02/01 09:34:02;;;;;;;2.30;1.53;;;14.00;1.00;;;;;;5136819;27;20424;-42
2024/02/01 09:36:27;;;;;;;3.10;1.80;;;14.20;1.00;;;;;;5138087;27;20211;-42
2024/02/01 09:38:54;;;;;;;2.70;1.80;;;14.40;1.00;;;;;;5137589;27;20462;-42
2024/02/01 09:41:21;;;;;;;2.77;2.00;;;14.50;1.00;;;;;;5137951;27;20231;-42
2024/02/01 09:43:51;;;;;;;2.60;2.00;;;14.70;99.90;;;;;;5139751;27;20421;-42
2024/02/01 09:46:17;;;;;;;1.97;1.30;;;14.80;99.90;;;;;;5139421;27;20834;-41
2024/02/01 09:48:44;;;;;;;3.10;1.80;;;15.00;1.00;;;;;;5139532;27;20853;-46
2024/02/01 09:51:17;;;;;;;1.97;1.70;;;15.10;1.00;;;;;;5136949;27;20432;-41
2024/02/01 09:53:49;;;;;;;2.03;1.57;;;15.20;1.00;;;;;;5134041;27;21055;-42
2024/02/01 09:56:14;;;;;;;2.00;1.50;;;15.30;99.90;;;;;;5134686;27;20526;-43
2024/02/01 09:58:41;;;;;;;2.00;1.83;;;15.40;99.90;;;;;;5135170;27;20528;-43
2024/02/01 10:01:09;;;;;;;4.53;2.63;;;15.60;1.00;;;;;;5136087;27;20675;-43
2024/02/01 10:03:35;;;;;;;2.90;2.50;;;15.60;1.00;;;;;;5133952;27;20429;-42
2024/02/01 10:06:04;;;;;;;2.97;2.40;;;15.40;1.00;;;;;;5135903;27;20465;-44
2024/02/01 10:08:33;;;;;;;2.97;2.47;;;15.00;9.50;;;;;;5137016;27;20179;-41
2024/02/01 10:11:01;;;;;;;3.60;2.10;;;14.60;1.00;;;;;;5137415;27;20527;-44
2024/02/01 10:13:30;;;;;;;2.30;2.00;;;14.20;1.00;;;;;;5137762;27;20436;-41
2024/02/01 10:15:56;;;;;;;2.40;2.20;;;13.90;99.90;;;;;;5137822;27;20472;-42
2024/02/01 10:18:23;;;;;;;2.20;1.90;;;13.60;99.90;;;;;;5136482;27;20505;-41
2024/02/01 10:20:58;;;;;;;2.63;2.20;;;13.40;1.00;;;;;;5136192;27;20497;-44
2024/02/01 10:23:24;;;;;;;2.70;2.10;;;13.20;99.90;;;;;;5136739;27;20626;-43
2024/02/01 10:25:54;;;;;;;2.70;2.13;;;13.00;1.00;;;;;;5139010;27;20448;-40
2024/02/01 10:28:21;;;;;;;2.30;2.10;;;12.90;99.90;;;;;;5138641;27;20448;-42
2024/02/01 10:30:49;;;;;;;2.40;2.20;;;12.80;99.90;;;;;;5137814;27;20460;-41
2024/02/01 10:33:19;;;;;;;3.33;2.00;;;12.80;1.00;;;;;;5137223;27;20477;-42
2024/02/01 10:35:50;;;;;;;2.23;2.03;;;12.80;1.00;;;;;;5136908;27;20559;-43
2024/02/01 10:38:25;;;;;;;2.80;2.40;;;12.80;1.00;;;;;;5135593;27;20405;-41
2024/02/01 10:40:52;;;;;;;2.77;2.20;;;12.90;1.00;;;;;;5135100;27;20663;-44
2024/02/01 10:43:19;;;;;;;3.10;2.20;;;12.90;74.20;;;;;;5135514;27;20417;-42
2024/02/01 10:45:48;;;;;;;2.70;2.13;;;12.90;99.90;;;;;;5133849;27;20455;-41
2024/02/01 10:48:19;;;;;;;1.87;1.50;;;12.90;99.90;;;;;;5134300;27;20703;-42
2024/02/01 10:50:45;;;;;;;2.87;1.97;;;12.90;99.90;;;;;;5131214;27;20428;-41
2024/02/01 10:53:15;;;;;;;2.13;1.93;;;13.00;99.90;;;;;;5135668;27;20518;-41
2024/02/01 10:55:41;;;;;;;3.10;1.43;;;13.10;99.90;;;;;;5137508;27;20713;-42
2024/02/01 10:58:12;;;;;;;2.77;1.20;;;13.20;1.00;;;;;;5137073;27;21049;-42
2024/02/01 11:00:41;;;;;;;2.47;1.50;;;13.60;1.00;;;;;;5135896;27;20186;-43
2024/02/01 11:03:08;;;;;;;2.57;1.30;;;14.10;1.00;;;;;;5134694;27;20432;-43
2024/02/01 11:05:36;;;;;;;2.07;1.20;;;14.40;99.90;;;;;;5137031;27;20465;-44
2024/02/01 11:08:02;;;;;;;1.27;1.00;;;14.60;99.90;;;;;;5137486;27;20635;-42
2024/02/01 11:10:28;;;;;;;1.57;1.30;;;14.50;99.90;;;;;;5137059;27;20840;-44
2024/02/01 11:12:54;;;;;;;1.80;1.10;;;14.30;99.90;;;;;;5136930;27;20523;-42
2024/02/01 11:15:24;;;;;;;1.40;1.00;;;14.10;1.00;;;;;;5117945;27;20631;-41
2024/02/01 11:17:50;;;;;;;1.53;0.90;;;13.80;99.90;;;;;;5136980;27;20424;-42
2024/02/01 11:20:25;;;;;;;1.50;0.90;;;13.60;1.00;;;;;;5137152;27;20404;-43
2024/02/01 11:22:58;;;;;;;1.30;0.80;;;13.40;41.70;;;;;;5135587;27;20424;-45
2024/02/01 11:25:28;;;;;;;1.80;0.87;;;13.20;99.90;;;;;;5136692;27;20432;-42
2024/02/01 11:27:54;;;;;;;1.10;0.80;;;13.10;1.00;;;;;;5136737;27;20425;-42
2024/02/01 11:30:28;;;;;;;1.10;0.80;;;13.00;99.90;;;;;;5137418;27;20670;-43
2024/02/01 11:32:55;;;;;;;1.23;0.70;;;12.80;99.90;;;;;;5136390;27;20174;-42
2024/02/01 11:35:22;;;;;;;1.93;0.80;;;12.70;1.00;;;;;;5118026;27;20557;-41
2024/02/01 11:38:01;;;;;;;1.20;0.80;;;12.70;1.00;;;;;;5137883;27;20415;-41
2024/02/01 11:40:29;;;;;;;1.60;0.70;;;12.60;58.90;;;;;;5136517;27;20523;-41
2024/02/01 11:42:58;;;;;;;1.57;0.80;;;12.60;99.90;;;;;;5133957;27;20428;-42
2024/02/01 11:45:24;;;;;;;1.10;0.80;;;12.60;99.90;;;;;;5136607;27;20539;-41
2024/02/01 11:47:51;;;;;;;1.97;0.87;;;12.50;99.90;;;;;;5135536;27;20695;-43
2024/02/01 11:50:17;;;;;;;1.20;0.90;;;12.50;99.90;;;;;;5134637;27;20735;-41
2024/02/01 11:52:50;;;;;;;1.27;0.63;;;12.50;1.00;;;;;;5135792;27;20565;-45
2024/02/01 11:55:16;;;;;;;2.10;0.80;;;12.60;1.00;;;;;;5116783;28;20230;-42
2024/02/01 11:57:50;;;;;;;1.33;1.23;;;12.60;1.00;;;;;;5135706;27;20822;-42
2024/02/01 12:00:20;;;;;;;1.67;1.10;;;12.70;1.00;;;;;;5134703;27;20544;-40
2024/02/01 12:02:47;;;;;;;2.17;1.37;;;12.70;1.00;;;;;;5135328;27;20420;-44
2024/02/01 12:05:17;;;;;;;3.77;2.40;;;12.80;99.90;;;;;;5136022;27;21000;-42
2024/02/01 12:07:44;;;;;;;4.97;4.37;;;12.90;99.90;;;;;;5135759;28;20791;-43
2024/02/01 12:10:11;;;;;;;3.20;2.90;;;12.90;99.90;;;;;;5134086;28;20521;-43
2024/02/01 12:12:38;;;;;;;3.37;3.00;;;12.90;99.90;;;;;;5135914;27;20519;-39
2024/02/01 12:15:05;;;;;;;3.33;3.03;;;12.80;99.90;;;;;;5135838;27;20784;-43
2024/02/01 12:17:50;;;;;;;2.73;2.43;;;12.80;99.90;;;;;;5133659;28;20458;-41
2024/02/01 12:20:16;;;;;;;3.10;1.97;;;12.90;99.90;;;;;;5135986;28;20428;-42
2024/02/01 12:22:47;;;;;;;2.77;2.13;;;12.80;99.90;;;;;;5133048;28;20683;-42
2024/02/01 12:25:17;;;;;;;4.50;3.40;;;12.90;99.90;;;;;;5135291;27;20297;-44
2024/02/01 12:27:47;;;;;;;3.60;3.30;;;12.90;99.90;;;;;;5134364;27;20564;-43
2024/02/01 12:30:15;;;;;;;2.80;2.50;;;12.90;99.90;;;;;;5118243;28;20443;-45
2024/02/01 12:32:43;;;;;;;2.70;2.50;;;13.00;98.60;;;;;;5133992;27;20459;-41
2024/02/01 12:35:14;;;;;;;2.20;1.90;;;13.00;1.00;;;;;;5135288;27;20467;-42
2024/02/01 12:37:43;;;;;;;2.87;2.63;;;13.00;1.00;;;;;;5133772;28;20428;-42
2024/02/01 12:40:14;;;;;;;3.57;3.00;;;13.00;1.00;;;;;;5135566;28;20491;-41
2024/02/01 12:42:41;;;;;;;4.30;3.73;;;13.10;1.00;;;;;;5119052;28;20448;-42
2024/02/01 12:45:20;;;;;;;2.70;2.00;;;13.10;1.00;;;;;;5118612;28;20553;-41
2024/02/01 12:47:53;;;;;;;3.30;2.90;;;13.30;1.00;;;;;;5117912;28;20432;-42
2024/02/01 12:50:20;;;;;;;2.93;2.23;;;13.50;99.90;;;;;;5135819;27;20814;-44
2024/02/01 12:52:45;;;;;;;3.07;2.83;;;13.70;1.00;;;;;;5116786;28;20432;-42
2024/02/01 12:55:12;;;;;;;4.50;4.00;;;13.70;99.90;;;;;;5132922;27;20746;-43
2024/02/01 12:57:38;;;;;;;7.47;5.93;;;13.70;1.00;;;;;;5137994;27;20432;-42
2024/02/01 13:00:06;;;;;;;4.20;3.47;;;13.60;1.00;;;;;;5133865;27;20443;-42
2024/02/01 13:02:32;;;;;;;3.40;3.10;;;13.50;99.90;;;;;;5134764;27;20726;-42
2024/02/01 13:04:58;;;;;;;3.13;2.80;;;13.40;99.90;;;;;;5135940;27;20671;-42
2024/02/01 13:07:24;;;;;;;3.50;3.20;;;13.30;99.90;;;;;;5132648;27;20455;-45
2024/02/01 13:09:49;;;;;;;3.90;3.60;;;13.20;99.90;;;;;;5139127;27;20489;-45
2024/02/01 13:12:18;;;;;;;4.63;4.20;;;13.10;99.90;;;;;;5137288;27;20446;-45
2024/02/01 13:15:00;;;;;;;5.40;4.87;;;12.90;1.00;;;;;;5138113;27;20549;-40
2024/02/01 13:17:34;;;;;;;4.83;4.00;;;12.80;1.00;;;;;;5139724;27;20654;-44
2024/02/01 13:20:00;;;;;;;3.17;2.87;;;12.70;44.40;;;;;;5122879;27;20424;-41
2024/02/01 13:22:29;;;;;;;4.40;4.00;;;12.70;99.90;;;;;;5137355;27;20783;-45
2024/02/01 13:24:55;;;;;;;4.27;3.47;;;12.60;99.90;;;;;;5119197;27;20695;-42
2024/02/01 13:27:21;;;;;;;4.87;4.03;;;12.50;1.00;;;;;;5136753;27;20432;-44
2024/02/01 13:29:46;;;;;;;5.57;4.70;;;12.40;1.00;;;;;;5137534;27;20421;-43
2024/02/01 13:32:14;;;;;;;7.53;6.20;;;12.30;1.00;;;;;;5118692;27;21080;-42
2024/02/01 13:34:41;;;;;;;5.93;5.30;;;12.20;1.00;;;;;;5136058;27;20283;-44
2024/02/01 13:37:08;;;;;;;5.73;5.07;;;12.10;92.30;;;;;;5117126;27;20518;-43
2024/02/01 13:39:34;;;;;;;6.57;5.50;;;12.10;99.90;;;;;;5135858;27;20548;-42
2024/02/01 13:42:03;;;;;;;7.40;5.60;;;12.00;99.90;;;;;;5133147;27;20413;-43
2024/02/01 13:44:30;;;;;;;6.47;4.67;;;12.00;99.90;;;;;;5136489;27;20429;-43
2024/02/01 13:46:56;;;;;;;6.67;5.10;;;12.00;99.90;;;;;;5135006;27;20643;-44
2024/02/01 13:49:22;;;;;;;8.30;6.40;;;12.00;99.90;;;;;;5118953;27;20502;-43
2024/02/01 13:51:48;;;;;;;9.20;6.93;;;12.00;1.00;;;;;;5137561;27;20428;-44
2024/02/01 13:54:15;;;;;;;8.00;7.20;;;11.90;1.00;;;;;;5137162;27;20502;-44